createdAt,value
2018-05-17T00:00:55.755Z,93282.00
2018-05-17T00:03:22.157Z,93287.34
2018-05-17T00:05:48.513Z,93285.64
2018-05-17T00:08:14.884Z,93287.73
2018-05-17T00:10:41.245Z,93284.30
2018-05-17T00:13:07.659Z,93285.67
2018-05-17T00:15:34.178Z,93278.62
2018-05-17T00:18:00.521Z,93284.71
2018-05-17T00:20:26.971Z,93288.64
2018-05-17T00:22:53.381Z,93282.28
2018-05-17T00:25:19.758Z,93285.66
2018-05-17T00:27:46.274Z,93281.41
2018-05-17T00:30:12.662Z,93280.88
2018-05-17T00:32:39.097Z,93281.99
2018-05-17T00:35:05.488Z,93278.42
2018-05-17T00:37:31.829Z,93276.71
2018-05-17T00:39:58.146Z,93278.41
2018-05-17T00:42:24.636Z,93284.16
2018-05-17T00:44:51.034Z,93279.88
2018-05-17T00:47:17.465Z,93279.98
2018-05-17T00:49:43.844Z,93279.12
2018-05-17T00:52:10.285Z,93275.48
2018-05-17T00:54:36.666Z,93273.31
2018-05-17T00:57:03.062Z,93280.25
2018-05-17T00:59:29.446Z,93278.47
2018-05-17T01:01:55.892Z,93279.30
2018-05-17T01:04:22.362Z,93275.87
2018-05-17T01:06:48.793Z,93275.85
2018-05-17T01:09:15.187Z,93279.26
2018-05-17T01:11:41.634Z,93276.22
2018-05-17T01:14:08.009Z,93290.27
2018-05-17T01:16:34.446Z,93285.33
2018-05-17T01:19:00.938Z,93286.80
2018-05-17T01:21:27.325Z,93284.20
2018-05-17T01:23:53.696Z,93284.36
2018-05-17T01:26:20.072Z,93283.47
2018-05-17T01:28:46.572Z,93277.38
2018-05-17T01:31:13.097Z,93274.56
2018-05-17T01:33:39.477Z,93279.61
2018-05-17T01:36:05.917Z,93278.73
2018-05-17T01:38:32.328Z,93276.03
2018-05-17T01:40:58.709Z,93286.44
2018-05-17T01:43:25.139Z,93286.68
2018-05-17T01:45:51.577Z,93291.06
2018-05-17T01:48:17.942Z,93295.78
2018-05-17T01:50:44.347Z,93289.94
2018-05-17T01:53:10.845Z,93295.45
2018-05-17T01:55:37.289Z,93298.58
2018-05-17T01:58:03.716Z,93296.22
2018-05-17T02:00:30.500Z,93302.94
2018-05-17T02:02:56.986Z,93298.91
2018-05-17T02:05:23.343Z,93302.21
2018-05-17T02:07:49.716Z,93301.22
2018-05-17T02:10:16.123Z,93305.70
2018-05-17T02:12:42.635Z,93308.34
2018-05-17T02:15:09.047Z,93303.74
2018-05-17T02:17:35.519Z,93302.55
2018-05-17T02:20:01.931Z,93312.77
2018-05-17T02:22:28.331Z,93310.00
2018-05-17T02:24:54.726Z,93317.73
2018-05-17T02:27:21.156Z,93308.55
2018-05-17T02:29:47.544Z,93307.53
2018-05-17T02:32:14.019Z,93308.21
2018-05-17T02:34:40.376Z,93316.95
2018-05-17T02:37:06.857Z,93315.03
2018-05-17T02:39:33.362Z,93312.17
2018-05-17T02:41:59.769Z,93313.30
2018-05-17T02:44:26.163Z,93312.27
2018-05-17T02:46:52.564Z,93315.03
2018-05-17T02:49:19.018Z,93312.64
2018-05-17T02:51:45.460Z,93316.47
2018-05-17T02:54:11.925Z,93312.64
2018-05-17T02:56:38.289Z,93315.92
2018-05-17T02:59:04.711Z,93317.27
2018-05-17T03:01:31.191Z,93317.68
2018-05-17T03:03:57.534Z,93318.19
2018-05-17T03:06:23.924Z,93320.22
2018-05-17T03:08:50.303Z,93328.91
2018-05-17T03:11:16.666Z,93332.20
2018-05-17T03:13:43.093Z,93328.47
2018-05-17T03:16:09.584Z,93333.19
2018-05-17T03:18:35.987Z,93332.59
2018-05-17T03:21:02.356Z,93334.39
2018-05-17T03:23:28.755Z,93335.95
2018-05-17T03:25:55.162Z,93338.95
2018-05-17T03:28:21.604Z,93348.28
2018-05-17T03:30:48.027Z,93346.77
2018-05-17T03:33:14.483Z,93343.88
2018-05-17T03:35:40.802Z,93346.50
2018-05-17T03:38:07.166Z,93345.76
2018-05-17T03:40:33.525Z,93350.64
2018-05-17T03:42:59.884Z,93350.30
2018-05-17T03:45:26.193Z,93358.06
2018-05-17T03:47:52.597Z,93358.65
2018-05-17T03:50:19.053Z,93356.40
2018-05-17T03:52:45.622Z,93364.03
2018-05-17T03:55:12.126Z,93368.03
2018-05-17T03:57:38.634Z,93374.17
2018-05-17T04:00:05.196Z,93378.59
2018-05-17T04:02:44.067Z,93373.02
2018-05-17T04:05:22.690Z,93374.64
2018-05-17T04:07:49.121Z,93374.56
2018-05-17T04:10:15.556Z,93376.76
2018-05-17T04:12:42.091Z,93379.58
2018-05-17T04:15:08.615Z,93377.16
2018-05-17T04:17:35.246Z,93390.37
2018-05-17T04:20:01.710Z,93394.41
2018-05-17T04:22:28.153Z,93392.23
2018-05-17T04:24:54.598Z,93397.40
2018-05-17T04:27:21.078Z,93397.44
2018-05-17T04:29:47.669Z,93395.51
2018-05-17T04:32:14.095Z,93398.50
2018-05-17T04:34:40.565Z,93404.99
2018-05-17T04:37:06.961Z,93405.56
2018-05-17T04:39:33.387Z,93406.20
2018-05-17T04:41:59.901Z,93408.44
2018-05-17T04:44:26.406Z,93409.22
2018-05-17T04:46:52.948Z,93405.60
2018-05-17T04:49:19.375Z,93401.02
2018-05-17T04:51:45.896Z,93404.75
2018-05-17T04:54:12.298Z,93405.17
2018-05-17T04:56:38.743Z,93411.72
2018-05-17T04:59:05.469Z,93398.70
2018-05-17T05:01:32.048Z,93398.48
2018-05-17T05:03:58.592Z,93394.05
2018-05-17T05:06:25.913Z,93400.77
2018-05-17T05:08:52.339Z,93399.88
2018-05-17T05:11:18.984Z,93398.92
2018-05-17T05:13:45.330Z,93389.52
2018-05-17T05:16:11.731Z,93392.41
2018-05-17T05:18:38.235Z,93396.30
2018-05-17T05:21:04.698Z,93403.58
2018-05-17T05:23:31.562Z,93406.27
2018-05-17T05:25:58.007Z,93407.80
2018-05-17T05:28:24.646Z,93411.78
2018-05-17T05:30:51.195Z,93413.31
2018-05-17T05:33:19.505Z,93409.94
2018-05-17T05:35:45.942Z,93409.89
2018-05-17T05:38:12.338Z,93411.97
2018-05-17T05:40:38.813Z,93421.30
2018-05-17T05:43:05.271Z,93411.11
2018-05-17T05:45:31.604Z,93413.40
2018-05-17T05:47:58.007Z,93416.36
2018-05-17T05:50:24.404Z,93418.65
2018-05-17T05:52:57.854Z,93423.68
2018-05-17T05:55:24.302Z,93417.44
2018-05-17T05:57:50.693Z,93425.31
2018-05-17T06:00:17.065Z,93429.52
2018-05-17T06:02:43.630Z,93428.08
2018-05-17T06:05:10.008Z,93431.09
2018-05-17T06:07:36.411Z,93434.39
2018-05-17T06:10:02.833Z,93429.16
2018-05-17T06:12:29.216Z,93429.34
2018-05-17T06:14:55.914Z,93425.91
2018-05-17T06:17:22.565Z,93425.98
2018-05-17T06:19:48.903Z,93419.41
2018-05-17T06:22:16.456Z,93418.76
2018-05-17T06:24:42.814Z,93420.61
2018-05-17T06:27:10.023Z,93420.41
2018-05-17T06:29:36.423Z,93422.41
2018-05-17T06:32:02.932Z,93416.55
2018-05-17T06:34:29.259Z,93420.08
2018-05-17T06:36:55.641Z,93413.90
2018-05-17T06:39:22.395Z,93410.80
2018-05-17T06:41:48.924Z,93416.41
2018-05-17T06:44:15.709Z,93417.90
2018-05-17T06:46:42.279Z,93411.52
2018-05-17T06:49:08.810Z,93410.41
2018-05-17T06:51:36.325Z,93410.34
2018-05-17T06:54:02.810Z,93410.81
2018-05-17T06:56:29.736Z,93413.31
2018-05-17T06:58:56.406Z,93408.13
2018-05-17T07:01:23.335Z,93404.88
2018-05-17T07:03:49.792Z,93406.17
2018-05-17T07:06:16.838Z,93399.61
2018-05-17T07:08:43.304Z,93405.25
2018-05-17T07:11:09.753Z,93403.86
2018-05-17T07:13:36.298Z,93406.68
2018-05-17T07:16:02.773Z,93409.00
2018-05-17T07:18:29.268Z,93407.12
2018-05-17T07:20:55.613Z,93407.30
2018-05-17T07:23:22.669Z,93410.11
2018-05-17T07:25:49.644Z,93410.70
2018-05-17T07:28:16.036Z,93413.34
2018-05-17T07:30:42.497Z,93406.98
2018-05-17T07:33:09.008Z,93409.97
2018-05-17T07:35:35.513Z,93410.36
2018-05-17T07:38:02.096Z,93406.33
2018-05-17T07:40:28.657Z,93407.72
2018-05-17T07:42:55.071Z,93413.78
2018-05-17T07:45:21.465Z,93416.37
2018-05-17T07:47:47.861Z,93419.16
2018-05-17T07:50:14.272Z,93413.17
2018-05-17T07:52:43.100Z,93413.66
2018-05-17T07:55:09.563Z,93415.41
2018-05-17T07:57:35.957Z,93422.15
2018-05-17T08:00:02.461Z,93420.81
2018-05-17T08:02:29.039Z,93419.88
2018-05-17T08:04:55.390Z,93415.61
2018-05-17T08:07:21.896Z,93415.93
2018-05-17T08:09:48.276Z,93417.20
2018-05-17T08:12:14.762Z,93418.65
2018-05-17T08:14:41.141Z,93415.55
2018-05-17T08:17:07.596Z,93421.95
2018-05-17T08:19:33.944Z,93427.55
2018-05-17T08:22:00.468Z,93425.75
2018-05-17T08:24:27.225Z,93421.39
2018-05-17T08:26:53.613Z,93418.48
2018-05-17T08:29:20.089Z,93420.84
2018-05-17T08:31:46.511Z,93421.92
2018-05-17T08:34:12.864Z,93427.30
2018-05-17T08:36:39.433Z,93426.42
2018-05-17T08:39:05.888Z,93423.58
2018-05-17T08:41:32.283Z,93417.31
2018-05-17T08:43:58.739Z,93416.94
2018-05-17T08:46:25.091Z,93411.73
2018-05-17T08:48:51.511Z,93415.16
2018-05-17T08:51:17.910Z,93420.86
2018-05-17T08:53:44.625Z,93407.50
2018-05-17T08:56:11.273Z,93416.37
2018-05-17T08:58:37.655Z,93416.73
2018-05-17T09:01:04.091Z,93411.03
2018-05-17T09:03:30.595Z,93410.95
2018-05-17T09:05:57.055Z,93394.23
2018-05-17T09:08:23.378Z,93399.73
2018-05-17T09:10:49.759Z,93393.69
2018-05-17T09:13:16.266Z,93401.06
2018-05-17T09:15:42.686Z,93393.54
2018-05-17T09:18:09.065Z,93386.30
2018-05-17T09:20:35.522Z,93389.70
2018-05-17T09:23:01.951Z,93392.46
2018-05-17T09:25:28.519Z,93383.72
2018-05-17T09:27:54.890Z,93395.73
2018-05-17T09:30:21.361Z,93391.47
2018-05-17T09:32:47.774Z,93398.81
2018-05-17T09:35:14.126Z,93396.07
2018-05-17T09:37:40.540Z,93387.82
2018-05-17T09:40:07.024Z,93402.56
2018-05-17T09:42:33.591Z,93394.80
2018-05-17T09:45:00.054Z,93388.66
2018-05-17T09:47:26.450Z,93387.48
2018-05-17T09:49:52.873Z,93383.97
2018-05-17T09:52:19.403Z,93391.27
2018-05-17T09:54:45.977Z,93382.83
2018-05-17T09:57:12.414Z,93393.67
2018-05-17T09:59:38.822Z,93396.34
2018-05-17T10:02:05.322Z,93392.25
2018-05-17T10:04:31.746Z,93398.77
2018-05-17T10:06:58.145Z,93392.39
2018-05-17T10:09:24.547Z,93398.37
2018-05-17T10:11:50.970Z,93399.60
2018-05-17T10:14:17.409Z,93399.12
2018-05-17T10:16:44.040Z,93397.64
2018-05-17T10:19:10.400Z,93397.87
2018-05-17T10:21:36.807Z,93399.08
2018-05-17T10:24:03.319Z,93395.77
2018-05-17T10:26:29.714Z,93393.69
2018-05-17T10:28:56.264Z,93390.60
2018-05-17T10:31:22.696Z,93398.16
2018-05-17T10:33:49.161Z,93389.94
2018-05-17T10:36:15.702Z,93395.41
2018-05-17T10:38:42.105Z,93384.92
2018-05-17T10:41:08.697Z,93391.66
2018-05-17T10:43:35.179Z,93389.88
2018-05-17T10:46:01.507Z,93379.93
2018-05-17T10:48:27.869Z,93379.57
2018-05-17T10:50:54.272Z,93382.15
2018-05-17T10:53:20.663Z,93369.58
2018-05-17T10:55:47.087Z,93378.66
2018-05-17T10:58:13.508Z,93376.45
2018-05-17T11:00:39.981Z,93373.68
2018-05-17T11:03:06.458Z,93372.02
2018-05-17T11:05:32.849Z,93373.42
2018-05-17T11:07:59.227Z,93375.45
2018-05-17T11:10:25.743Z,93382.28
2018-05-17T11:12:52.185Z,93381.74
2018-05-17T11:15:18.651Z,93379.16
2018-05-17T11:17:45.071Z,93383.08
2018-05-17T11:20:11.545Z,93380.77
2018-05-17T11:22:38.076Z,93383.23
2018-05-17T11:25:04.510Z,93376.77
2018-05-17T11:27:30.939Z,93379.70
2018-05-17T11:29:57.289Z,93372.20
2018-05-17T11:32:23.707Z,93371.50
2018-05-17T11:34:50.107Z,93369.91
2018-05-17T11:37:16.537Z,93372.16
2018-05-17T11:39:42.936Z,93367.53
2018-05-17T11:42:09.558Z,93374.70
2018-05-17T11:44:36.057Z,93378.94
2018-05-17T11:47:02.443Z,93366.77
2018-05-17T11:49:28.938Z,93358.02
2018-05-17T11:51:55.434Z,93360.77
2018-05-17T11:54:21.837Z,93367.67
2018-05-17T11:56:48.384Z,93372.91
2018-05-17T11:59:14.909Z,93360.20
2018-05-17T12:01:41.403Z,93360.67
2018-05-17T12:04:08.037Z,93358.84
2018-05-17T12:06:34.553Z,93360.04
2018-05-17T12:09:01.052Z,93350.55
2018-05-17T12:11:27.771Z,93356.55
2018-05-17T12:13:54.307Z,93351.09
2018-05-17T12:16:20.700Z,93353.83
2018-05-17T12:18:47.135Z,93343.91
2018-05-17T12:21:13.458Z,93340.04
2018-05-17T12:23:39.951Z,93343.32
2018-05-17T12:26:06.568Z,93337.58
2018-05-17T12:28:33.229Z,93338.16
2018-05-17T12:30:59.789Z,93327.62
2018-05-17T12:33:27.254Z,93337.77
2018-05-17T12:35:53.712Z,93331.11
2018-05-17T12:38:20.355Z,93334.16
2018-05-17T12:40:46.726Z,93328.55
2018-05-17T12:43:13.278Z,93323.02
2018-05-17T12:45:39.709Z,93322.50
2018-05-17T12:48:06.240Z,93316.22
2018-05-17T12:50:32.699Z,93316.63
2018-05-17T12:52:59.148Z,93315.66
2018-05-17T12:55:26.613Z,93316.09
2018-05-17T12:57:53.088Z,93308.58
2018-05-17T13:00:19.505Z,93312.07
2018-05-17T13:02:46.015Z,93311.77
2018-05-17T13:05:28.981Z,93299.59
2018-05-17T13:07:55.389Z,93303.99
2018-05-17T13:10:21.782Z,93312.99
2018-05-17T13:12:48.264Z,93304.87
2018-05-17T13:15:14.765Z,93310.31
2018-05-17T13:17:41.221Z,93300.43
2018-05-17T13:20:07.647Z,93305.91
2018-05-17T13:22:34.163Z,93304.23
2018-05-17T13:25:00.676Z,93306.83
2018-05-17T13:27:27.118Z,93294.27
2018-05-17T13:29:53.645Z,93300.52
2018-05-17T13:32:20.106Z,93296.19
2018-05-17T13:34:46.578Z,93299.42
2018-05-17T13:37:13.139Z,93297.59
2018-05-17T13:39:39.593Z,93312.15
2018-05-17T13:42:06.000Z,93304.82
2018-05-17T13:44:32.526Z,93313.02
2018-05-17T13:46:59.071Z,93312.45
2018-05-17T13:49:25.502Z,93309.19
2018-05-17T13:51:51.928Z,93299.67
2018-05-17T13:54:18.365Z,93303.38
2018-05-17T13:56:45.505Z,93302.45
2018-05-17T13:59:11.958Z,93301.52
2018-05-17T14:01:38.446Z,93297.94
2018-05-17T14:04:05.126Z,93296.28
2018-05-17T14:06:31.775Z,93295.19
2018-05-17T14:08:58.196Z,93296.86
2018-05-17T14:11:24.589Z,93296.46
2018-05-17T14:13:52.102Z,93298.59
2018-05-17T14:16:18.420Z,93297.73
2018-05-17T14:18:44.859Z,93301.42
2018-05-17T14:21:11.362Z,93299.72
2018-05-17T14:23:37.956Z,93296.96
2018-05-17T14:26:04.357Z,93296.76
2018-05-17T14:28:30.779Z,93289.44
2018-05-17T14:30:57.242Z,93300.81
2018-05-17T14:33:23.739Z,93296.26
2018-05-17T14:35:50.234Z,93303.44
2018-05-17T14:38:16.720Z,93300.09
2018-05-17T14:40:43.190Z,93293.66
2018-05-17T14:43:10.021Z,93292.73
2018-05-17T14:45:36.413Z,93286.84
2018-05-17T14:48:02.914Z,93293.49
2018-05-17T14:50:29.527Z,93291.97
2018-05-17T14:52:56.043Z,93291.38
2018-05-17T14:55:22.571Z,93293.77
2018-05-17T14:57:48.998Z,93299.33
2018-05-17T15:00:15.448Z,93298.64
2018-05-17T15:02:41.850Z,93300.69
2018-05-17T15:05:08.391Z,93298.48
2018-05-17T15:07:34.792Z,93299.74
2018-05-17T15:10:01.290Z,93306.73
2018-05-17T15:12:27.875Z,93297.86
2018-05-17T15:14:54.436Z,93296.00
2018-05-17T15:17:20.870Z,93300.97
2018-05-17T15:19:47.392Z,93298.92
2018-05-17T15:22:13.985Z,93299.70
2018-05-17T15:24:40.897Z,93299.56
2018-05-17T15:27:07.310Z,93297.84
2018-05-17T15:29:33.734Z,93300.80
2018-05-17T15:32:00.190Z,93305.00
2018-05-17T15:34:26.786Z,93303.27
2018-05-17T15:36:53.311Z,93304.73
2018-05-17T15:39:19.761Z,93306.63
2018-05-17T15:41:46.306Z,93301.30
2018-05-17T15:44:12.780Z,93303.12
2018-05-17T15:46:39.214Z,93299.92
2018-05-17T15:49:05.682Z,93306.78
2018-05-17T15:51:32.103Z,93306.73
2018-05-17T15:53:58.629Z,93304.25
2018-05-17T15:56:25.448Z,93300.27
2018-05-17T15:58:52.550Z,93299.57
2018-05-17T16:01:19.077Z,93301.27
2018-05-17T16:03:45.642Z,93306.71
2018-05-17T16:06:12.200Z,93302.74
2018-05-17T16:08:38.749Z,93310.78
2018-05-17T16:11:05.390Z,93313.68
2018-05-17T16:13:32.081Z,93317.60
2018-05-17T16:15:58.535Z,93311.59
2018-05-17T16:18:25.176Z,93308.73
2018-05-17T16:20:52.433Z,93312.38
2018-05-17T16:23:18.931Z,93304.97
2018-05-17T16:25:45.440Z,93306.53
2018-05-17T16:28:11.999Z,93305.71
2018-05-17T16:30:38.474Z,93307.22
2018-05-17T16:33:04.995Z,93301.59
2018-05-17T16:35:31.550Z,93306.47
2018-05-17T16:37:58.047Z,93306.51
2018-05-17T16:40:24.699Z,93309.02
2018-05-17T16:42:51.476Z,93311.92
2018-05-17T16:45:17.897Z,93313.50
2018-05-17T16:47:44.601Z,93310.31
2018-05-17T16:50:11.165Z,93309.23
2018-05-17T16:52:38.008Z,93318.33
2018-05-17T16:55:04.687Z,93311.85
2018-05-17T16:57:31.237Z,93319.33
2018-05-17T16:59:57.729Z,93320.30
2018-05-17T17:02:24.376Z,93313.22
2018-05-17T17:04:51.061Z,93324.67
2018-05-17T17:07:17.802Z,93323.63
2018-05-17T17:09:44.329Z,93323.11
2018-05-17T17:12:10.915Z,93324.09
2018-05-17T17:14:37.490Z,93332.00
2018-05-17T17:17:03.947Z,93331.22
2018-05-17T17:19:30.551Z,93334.94
2018-05-17T17:21:57.325Z,93343.73
2018-05-17T17:24:23.871Z,93344.12
2018-05-17T17:26:51.252Z,93344.91
2018-05-17T17:29:17.784Z,93351.58
2018-05-17T17:31:44.348Z,93356.96
2018-05-17T17:34:11.811Z,93355.02
2018-05-17T17:36:38.465Z,93361.45
2018-05-17T17:39:05.819Z,93358.35
2018-05-17T17:41:32.332Z,93363.01
2018-05-17T17:44:03.641Z,93364.61
2018-05-17T17:46:31.169Z,93365.78
2018-05-17T17:48:57.805Z,93368.89
2018-05-17T17:51:24.351Z,93367.32
2018-05-17T17:53:51.783Z,93374.55
2018-05-17T17:56:18.548Z,93370.73
2018-05-17T17:58:45.089Z,93375.28
2018-05-17T18:01:11.702Z,93373.80
2018-05-17T18:03:38.435Z,93382.48
2018-05-17T18:06:05.078Z,93377.56
2018-05-17T18:08:32.148Z,93376.36
2018-05-17T18:10:58.681Z,93373.44
2018-05-17T18:13:25.270Z,93382.66
2018-05-17T18:15:53.117Z,93392.93
2018-05-17T18:18:20.127Z,93395.63
2018-05-17T18:20:46.951Z,93392.55
2018-05-17T18:23:14.564Z,93390.52
2018-05-17T18:25:41.343Z,93388.14
2018-05-17T18:28:07.883Z,93387.64
2018-05-17T18:30:34.885Z,93389.98
2018-05-17T18:33:01.629Z,93395.39
2018-05-17T18:35:28.369Z,93393.30
2018-05-17T18:37:54.999Z,93394.83
2018-05-17T18:40:21.723Z,93393.51
2018-05-17T18:42:48.580Z,93405.73
2018-05-17T18:45:15.545Z,93403.78
2018-05-17T18:47:42.361Z,93407.93
2018-05-17T18:50:09.038Z,93410.02
2018-05-17T18:52:35.672Z,93410.24
2018-05-17T18:55:02.286Z,93411.41
2018-05-17T18:57:28.915Z,93419.48
2018-05-17T18:59:55.784Z,93421.63
2018-05-17T19:02:22.516Z,93424.61
2018-05-17T19:04:49.719Z,93427.16
2018-05-17T19:07:16.522Z,93433.95
2018-05-17T19:09:43.223Z,93435.56
2018-05-17T19:12:09.776Z,93439.23
2018-05-17T19:14:36.584Z,93436.50
2018-05-17T19:17:03.421Z,93429.15
2018-05-17T19:19:30.048Z,93433.66
2018-05-17T19:21:56.825Z,93430.78
2018-05-17T19:24:23.412Z,93432.52
2018-05-17T19:26:50.228Z,93428.89
2018-05-17T19:29:17.241Z,93429.72
2018-05-17T19:31:43.913Z,93428.55
2018-05-17T19:34:10.629Z,93430.90
2018-05-17T19:36:38.388Z,93429.72
2018-05-17T19:39:06.120Z,93434.96
2018-05-17T19:41:32.812Z,93430.85
2018-05-17T19:43:59.486Z,93431.23
2018-05-17T19:46:26.107Z,93436.14
2018-05-17T19:48:52.622Z,93432.33
2018-05-17T19:51:19.583Z,93446.95
2018-05-17T19:53:46.789Z,93441.73
2018-05-17T19:56:13.479Z,93445.20
2018-05-17T19:58:41.549Z,93450.80
2018-05-17T20:01:08.726Z,93454.80
2018-05-17T20:03:35.375Z,93455.39
2018-05-17T20:06:01.964Z,93455.16
2018-05-17T20:08:28.523Z,93456.14
2018-05-17T20:10:54.988Z,93460.20
2018-05-17T20:13:21.588Z,93458.11
2018-05-17T20:15:48.019Z,93460.22
2018-05-17T20:18:14.468Z,93458.89
2018-05-17T20:20:41.053Z,93459.02
2018-05-17T20:23:07.636Z,93453.16
2018-05-17T20:25:34.094Z,93453.71
2018-05-17T20:28:00.552Z,93459.24
2018-05-17T20:30:27.107Z,93467.24
2018-05-17T20:32:53.664Z,93465.70
2018-05-17T20:35:20.065Z,93463.81
2018-05-17T20:37:46.479Z,93462.58
2018-05-17T20:40:12.876Z,93464.64
2018-05-17T20:42:39.339Z,93462.55
2018-05-17T20:45:05.814Z,93468.24
2018-05-17T20:47:32.276Z,93471.27
2018-05-17T20:49:58.802Z,93474.93
2018-05-17T20:52:25.241Z,93471.05
2018-05-17T20:54:51.705Z,93471.23
2018-05-17T20:57:18.321Z,93465.36
2018-05-17T20:59:44.902Z,93462.69
2018-05-17T21:02:11.279Z,93460.55
2018-05-17T21:04:37.989Z,93456.03
2018-05-17T21:07:05.219Z,93459.11
2018-05-17T21:09:31.790Z,93454.48
2018-05-17T21:11:58.328Z,93465.45
2018-05-17T21:14:24.751Z,93461.89
2018-05-17T21:16:51.906Z,93462.47
2018-05-17T21:19:18.348Z,93459.80
2018-05-17T21:21:44.728Z,93466.83
2018-05-17T21:24:11.222Z,93482.88
2018-05-17T21:26:37.670Z,93502.01
2018-05-17T21:29:04.078Z,93487.07
2018-05-17T21:31:30.454Z,93483.53
2018-05-17T21:33:56.963Z,93467.77
2018-05-17T21:36:23.363Z,93464.98
2018-05-17T21:38:49.727Z,93466.78
2018-05-17T21:41:16.138Z,93474.24
2018-05-17T21:43:42.589Z,93476.26
2018-05-17T21:46:08.929Z,93484.05
2018-05-17T21:48:35.372Z,93486.30
2018-05-17T21:51:01.768Z,93497.30
2018-05-17T21:53:28.256Z,93491.81
2018-05-17T21:55:54.759Z,93486.08
2018-05-17T21:58:21.245Z,93482.30
2018-05-17T22:00:47.675Z,93480.38
2018-05-17T22:03:14.379Z,93484.45
2018-05-17T22:05:40.934Z,93475.08
2018-05-17T22:08:07.319Z,93482.63
2018-05-17T22:10:33.795Z,93481.52
2018-05-17T22:13:00.176Z,93484.30
2018-05-17T22:15:26.678Z,93492.80
2018-05-17T22:17:53.149Z,93488.55
2018-05-17T22:20:19.522Z,93491.02
2018-05-17T22:22:45.854Z,93490.45
2018-05-17T22:25:12.400Z,93488.38
2018-05-17T22:27:38.755Z,93491.13
2018-05-17T22:30:05.178Z,93492.08
2018-05-17T22:32:31.610Z,93490.03
2018-05-17T22:34:58.053Z,93487.42
2018-05-17T22:37:24.446Z,93490.21
2018-05-17T22:39:50.801Z,93491.83
2018-05-17T22:42:17.211Z,93493.73
2018-05-17T22:44:43.595Z,93494.15
2018-05-17T22:47:10.080Z,93494.47
2018-05-17T22:49:36.427Z,93503.31
2018-05-17T22:52:02.830Z,93507.81
2018-05-17T22:54:29.232Z,93500.52
2018-05-17T22:57:06.914Z,93503.38
2018-05-17T22:59:33.393Z,93494.68
2018-05-17T23:01:59.827Z,93492.80
2018-05-17T23:04:26.221Z,93499.63
2018-05-17T23:06:52.673Z,93490.36
2018-05-17T23:09:19.039Z,93496.86
2018-05-17T23:11:45.469Z,93495.02
2018-05-17T23:14:11.932Z,93490.05
2018-05-17T23:16:38.297Z,93488.33
2018-05-17T23:19:04.674Z,93491.51
2018-05-17T23:21:31.080Z,93490.84
2018-05-17T23:23:57.501Z,93487.30
2018-05-17T23:26:23.932Z,93487.03
2018-05-17T23:28:50.509Z,93481.53
2018-05-17T23:31:16.866Z,93477.27
2018-05-17T23:33:43.334Z,93476.50
2018-05-17T23:36:09.764Z,93480.83
2018-05-17T23:38:36.304Z,93473.98
2018-05-17T23:41:14.970Z,93473.06
2018-05-17T23:43:41.368Z,93474.41
2018-05-17T23:46:07.848Z,93468.56
2018-05-17T23:48:34.344Z,93469.58
2018-05-17T23:51:00.710Z,93465.46
2018-05-17T23:53:27.171Z,93461.70
2018-05-17T23:55:53.612Z,93469.08
2018-05-17T23:58:19.965Z,93473.36
